OBBIWSSS

Guest
Details From OBBI - Bahrain Intl
To WSSS - Singapore Changi Intl
Flight Number -
Tags Generated
Created
Modified
Stats Distance 3,420 nm / 6,334 km
Max Altitude 0 ft / 0 m
Waypoints 8
Social Downloads 0
Likes 0
Share VATSIM

Download

Looking for another format? Having issues loading an existing format? Contact us
Advertisement - Login to hide

Notes

Generated

Route

OBBI ASROM ITILA BRAVO DUAMO GOBAS R1799 WSSS

ID Type Via Altitude Latitude Longitude Leg Dist Tot Dist Heading (true) Name
O OBBI APT - 0 ft / 0 m 26.27100˚ 50.62993˚ - 0 nm - -
ASROM FIX - 0 ft / 0 m 24.98556˚ 54.86000˚ 241 nm 241 nm 108° / 110° -
ITILA FIX - 0 ft / 0 m 23.68194˚ 58.80472˚ 229 nm 471 nm 109° / 111° -
BRAVO FIX - 0 ft / 0 m 20.94658˚ 66.35856˚ 450 nm 921 nm 110° / 113° -
DUAMO FIX - 0 ft / 0 m 5.26602˚ 97.51127˚ 2044 nm 2966 nm 113° / 120° -
GOBAS FIX - 0 ft / 0 m 3.35639˚ 100.95611˚ 236 nm 3202 nm 119° / 119° -
R1799 FIX - 0 ft / 0 m 1.34897˚ 103.97750˚ 217 nm 3419 nm 124° / 124° -
O WSSS APT - 0 ft / 0 m 1.34897˚ 103.97750˚ 0 nm 3419 nm 90° / 90° -

Altitude Profile

Advertisement - Login to hide

Weather


0- 5 10 15 20 25 30 35+ Temperature / ° C

Clouds and Precipitation
Forecast for 2017-12-11 18:00 UTC. Updated 2 hours ago

Ground ~20,000 ft ~40,000 ft Winds

OBBI

Details ICAO OBBI (BAH)
Name BAHRAIN INTL
Region Bahrain
Timezone Asia/Bahrain (UTC+3.0)
Stats Elevation 6 ft / 2 m (AMSL)
Location 26.267837° 50.637095°
Runways 2
Magnetic Variation 2.762° E

METAR

OBBI 111500Z 30015KT CAVOK 18/10 Q1022 NOSIG

Decode

TAF

TAF OBBI 111100Z 1112/1218 31016KT CAVOK BECMG 1203/1206 32017G27KT= TAF OKBK 111045Z 1112/1218 33008G18KT 7000 SKC

Decode

Departure Runways

ID Width Length Bearing (true) Bearing (mag) Surface Threshold Offset Overrun Length
12L 197 ft / 60 m 12,893 ft / 3,930 m 122.74° 119.98° Asphalt 1,000 ft / 305 m 0 ft / 0 m
12R 148 ft / 45 m 8,303 ft / 2,531 m 122.76° 120.00° Asphalt 1,000 ft / 305 m 0 ft / 0 m
30L 148 ft / 45 m 8,303 ft / 2,531 m 302.77° 300.01° Asphalt 395 ft / 120 m 0 ft / 0 m
30R 197 ft / 60 m 12,893 ft / 3,930 m 302.75° 299.99° Asphalt 1,000 ft / 305 m 0 ft / 0 m

WSSS

Details ICAO WSSS (SIN)
Name Singapore Changi Intl. Airport
Region Singapore
Timezone Unknown (UTC+0.0)
Stats Elevation 22 ft / 7 m (AMSL)
Location 1.351917° 103.995603°
Runways 3
Magnetic Variation 0.229° E

METAR

WSSS 111500Z 32003KT 260V350 9999 FEW020 BKN150 25/25 Q1013 NOSIG

Decode

TAF

TAF WSSS 111100Z 1112/1218 34008KT 9999 FEW018CB SCT020 TEMPO 1206/1210 3000 TSRA FEW012CB BKN015

Decode

Destination Runways

ID Width Length Bearing (true) Bearing (mag) Surface Threshold Offset Overrun Length
02C 164 ft / 50 m 13,619 ft / 4,151 m 22.80° 22.57° Asphalt 200 ft / 61 m 0 ft / 0 m
02L 164 ft / 50 m 14,308 ft / 4,361 m 22.69° 22.46° Asphalt 200 ft / 61 m 0 ft / 0 m
02R 164 ft / 50 m 10,072 ft / 3,070 m 22.74° 22.51° Asphalt 600 ft / 183 m 0 ft / 0 m
20C 164 ft / 50 m 13,619 ft / 4,151 m 202.80° 202.57° Asphalt 200 ft / 61 m 0 ft / 0 m
20L 164 ft / 50 m 10,072 ft / 3,070 m 202.74° 202.51° Asphalt 499 ft / 152 m 0 ft / 0 m
20R 164 ft / 50 m 14,308 ft / 4,361 m 202.69° 202.46° Asphalt 3,301 ft / 1,006 m 0 ft / 0 m

Approach Navaids

Runway Type Ident Frequency Range Bearing (true) Bearing (mag) Slope Elevation
02C Localiser ICE 108.30 MHz 18 nm / 33 km 22.80° 22.57° - 15 ft / 5 m (AMSL)
02C Glidescope ICE 108.30 MHz 10 nm / 19 km 22.84° 22.61° 3.00° 15 ft / 5 m (AMSL)
02C DME ICE 108.30 MHz 18 nm / 33 km - - - 15 ft / 5 m (AMSL)
02L Localiser ICW 110.90 MHz 18 nm / 33 km 22.84° 22.61° - 14 ft / 4 m (AMSL)
02L Glidescope ICW 110.90 MHz 10 nm / 19 km 22.89° 22.66° 3.00° 22 ft / 7 m (AMSL)
02L DME ICW 110.90 MHz 18 nm / 33 km - - - 20 ft / 6 m (AMSL)
20C Localiser ICC 109.70 MHz 18 nm / 33 km 202.92° 202.69° - 15 ft / 5 m (AMSL)
20C Glidescope ICC 109.70 MHz 10 nm / 19 km 202.84° 202.61° 3.00° 15 ft / 5 m (AMSL)
20C DME ICC 109.70 MHz 18 nm / 33 km - - - 15 ft / 5 m (AMSL)
20R Localiser ICH 108.90 MHz 18 nm / 33 km 202.93° 202.70° - 22 ft / 7 m (AMSL)
20R Glidescope ICH 108.90 MHz 10 nm / 19 km 202.89° 202.66° 3.00° 14 ft / 4 m (AMSL)
20R DME ICH 108.90 MHz 18 nm / 33 km - - - 22 ft / 7 m (AMSL)

Popular Alternatives